createdAt,value
2022-08-26T00:00:52.067Z,4.55
2022-08-26T00:03:20.846Z,4.20
2022-08-26T00:05:51.008Z,4.30
2022-08-26T00:08:21.519Z,3.83
2022-08-26T00:10:49.881Z,4.40
2022-08-26T00:13:19.726Z,4.57
2022-08-26T00:15:48.055Z,4.20
2022-08-26T00:18:21.961Z,4.28
2022-08-26T00:20:51.575Z,4.22
2022-08-26T00:23:20.495Z,4.28
2022-08-26T00:25:52.919Z,4.80
2022-08-26T00:28:23.908Z,4.57
2022-08-26T00:30:52.483Z,3.95
2022-08-26T00:33:22.200Z,4.28
2022-08-26T00:35:50.548Z,4.35
2022-08-26T00:38:22.861Z,4.15
2022-08-26T00:40:53.753Z,4.85
2022-08-26T00:43:25.637Z,4.75
2022-08-26T00:45:58.840Z,4.40
2022-08-26T00:48:31.719Z,4.10
2022-08-26T00:51:03.721Z,4.03
2022-08-26T00:53:37.777Z,4.80
2022-08-26T00:56:17.991Z,4.60
2022-08-26T00:58:48.637Z,4.22
2022-08-26T01:01:18.299Z,3.58
2022-08-26T01:03:51.488Z,4.82
2022-08-26T01:06:20.997Z,3.90
2022-08-26T01:08:49.396Z,4.25
2022-08-26T01:11:17.733Z,4.78
2022-08-26T01:13:48.755Z,4.50
2022-08-26T01:16:18.034Z,4.68
2022-08-26T01:18:46.915Z,3.97
2022-08-26T01:21:22.964Z,4.65
2022-08-26T01:23:57.446Z,4.18
2022-08-26T01:26:30.981Z,4.40
2022-08-26T01:29:03.954Z,4.50
2022-08-26T01:31:38.611Z,5.13
2022-08-26T01:34:12.129Z,3.85
2022-08-26T01:36:41.661Z,4.00
2022-08-26T01:39:11.773Z,4.65
2022-08-26T01:41:44.063Z,4.57
2022-08-26T01:44:19.334Z,4.47
2022-08-26T01:46:50.723Z,4.28
2022-08-26T01:49:20.542Z,4.35
2022-08-26T01:51:50.815Z,4.10
2022-08-26T01:54:20.671Z,4.43
2022-08-26T01:56:55.275Z,4.55
2022-08-26T01:59:25.679Z,4.45
2022-08-26T02:01:55.282Z,4.15
2022-08-26T02:04:27.252Z,4.45
2022-08-26T02:06:56.999Z,4.15
2022-08-26T02:09:28.713Z,4.28
2022-08-26T02:12:01.898Z,4.55
2022-08-26T02:14:35.942Z,4.10
2022-08-26T02:17:13.472Z,4.55
2022-08-26T02:19:47.096Z,4.47
2022-08-26T02:22:19.240Z,4.25
2022-08-26T02:24:50.861Z,4.50
2022-08-26T02:27:21.088Z,5.03
2022-08-26T02:29:52.642Z,4.97
2022-08-26T02:32:20.864Z,4.70
2022-08-26T02:34:49.423Z,4.43
2022-08-26T02:37:17.818Z,4.40
2022-08-26T02:39:50.460Z,3.80
2022-08-26T02:42:20.369Z,4.88
2022-08-26T02:44:48.888Z,4.43
2022-08-26T02:47:18.182Z,4.22
2022-08-26T02:49:47.584Z,4.45
2022-08-26T02:52:16.601Z,4.13
2022-08-26T02:54:45.476Z,4.93
2022-08-26T02:57:15.284Z,4.72
2022-08-26T02:59:43.564Z,4.63
2022-08-26T03:02:13.024Z,4.63
2022-08-26T03:04:57.338Z,4.95
2022-08-26T03:07:30.894Z,4.55
2022-08-26T03:09:59.598Z,5.13
2022-08-26T03:12:29.287Z,4.90
2022-08-26T03:14:58.021Z,4.72
2022-08-26T03:17:26.898Z,5.53
2022-08-26T03:19:57.240Z,5.05
2022-08-26T03:22:27.233Z,4.90
2022-08-26T03:24:55.931Z,4.68
2022-08-26T03:27:24.230Z,4.90
2022-08-26T03:30:11.644Z,4.60
2022-08-26T03:32:41.547Z,5.28
2022-08-26T03:35:10.268Z,4.80
2022-08-26T03:37:38.787Z,5.07
2022-08-26T03:40:10.532Z,5.05
2022-08-26T03:42:39.441Z,4.88
2022-08-26T03:45:11.406Z,5.10
2022-08-26T03:47:41.120Z,4.95
2022-08-26T03:50:12.052Z,4.85
2022-08-26T03:52:43.917Z,4.25
2022-08-26T03:55:13.417Z,5.25
2022-08-26T03:57:42.369Z,5.07
2022-08-26T04:00:18.529Z,4.75
2022-08-26T04:02:51.267Z,4.95
2022-08-26T04:05:23.095Z,5.53
2022-08-26T04:07:51.721Z,5.20
2022-08-26T04:10:28.726Z,5.22
2022-08-26T04:12:59.407Z,5.80
2022-08-26T04:15:29.848Z,5.25
2022-08-26T04:17:58.351Z,5.65
2022-08-26T04:20:26.790Z,4.93
2022-08-26T04:22:55.062Z,5.75
2022-08-26T04:25:24.159Z,5.30
2022-08-26T04:27:53.004Z,5.20
2022-08-26T04:30:21.335Z,4.00
2022-08-26T04:32:51.259Z,4.60
2022-08-26T04:35:23.892Z,4.80
2022-08-26T04:37:54.316Z,4.43
2022-08-26T04:40:22.733Z,4.72
2022-08-26T04:42:51.597Z,4.63
2022-08-26T04:45:22.775Z,4.75
2022-08-26T04:47:56.490Z,4.90
2022-08-26T04:50:26.566Z,4.70
2022-08-26T04:52:56.319Z,4.10
2022-08-26T04:55:38.585Z,4.65
2022-08-26T04:58:12.168Z,4.82
2022-08-26T05:00:40.445Z,4.30
2022-08-26T05:03:10.569Z,4.90
2022-08-26T05:05:41.370Z,4.45
2022-08-26T05:08:11.237Z,4.82
2022-08-26T05:10:43.751Z,4.97
2022-08-26T05:13:15.141Z,5.13
2022-08-26T05:15:45.285Z,4.97
2022-08-26T05:18:16.743Z,5.05
2022-08-26T05:20:48.394Z,4.10
2022-08-26T05:23:18.384Z,5.13
2022-08-26T05:25:49.027Z,5.18
2022-08-26T05:28:18.866Z,4.68
2022-08-26T05:30:47.534Z,4.38
2022-08-26T05:33:17.692Z,3.92
2022-08-26T05:35:47.411Z,5.47
2022-08-26T05:38:18.015Z,4.53
2022-08-26T05:40:49.109Z,5.03
2022-08-26T05:43:22.725Z,4.18
2022-08-26T05:45:52.216Z,4.10
2022-08-26T05:48:24.390Z,4.15
2022-08-26T05:50:54.563Z,5.03
2022-08-26T05:53:23.927Z,4.57
2022-08-26T05:55:56.420Z,4.65
2022-08-26T05:58:27.316Z,3.65
2022-08-26T06:01:06.964Z,4.13
2022-08-26T06:03:39.653Z,3.95
2022-08-26T06:06:11.281Z,4.75
2022-08-26T06:08:40.314Z,5.15
2022-08-26T06:11:18.327Z,4.60
2022-08-26T06:13:47.484Z,4.20
2022-08-26T06:16:19.620Z,4.38
2022-08-26T06:18:50.733Z,5.00
2022-08-26T06:21:21.246Z,4.07
2022-08-26T06:24:09.441Z,4.85
2022-08-26T06:26:38.188Z,4.47
2022-08-26T06:29:07.767Z,4.80
2022-08-26T06:31:37.783Z,4.70
2022-08-26T06:34:10.926Z,4.82
2022-08-26T06:36:40.669Z,4.60
2022-08-26T06:39:14.262Z,4.43
2022-08-26T06:41:44.777Z,5.07
2022-08-26T06:44:15.443Z,4.57
2022-08-26T06:46:44.562Z,4.50
2022-08-26T06:49:14.383Z,4.10
2022-08-26T06:51:45.926Z,3.85
2022-08-26T06:54:17.215Z,5.25
2022-08-26T06:56:45.707Z,4.60
2022-08-26T06:59:16.139Z,5.05
2022-08-26T07:01:45.869Z,3.67
2022-08-26T07:04:22.153Z,5.05
2022-08-26T07:06:53.593Z,4.63
2022-08-26T07:09:23.871Z,5.85
2022-08-26T07:11:53.198Z,4.63
2022-08-26T07:14:22.062Z,3.80
2022-08-26T07:16:50.588Z,5.18
2022-08-26T07:19:30.146Z,4.32
2022-08-26T07:21:59.096Z,4.53
2022-08-26T07:24:28.525Z,4.40
2022-08-26T07:27:00.829Z,4.57
2022-08-26T07:29:30.040Z,4.15
2022-08-26T07:31:59.700Z,4.38
2022-08-26T07:34:29.991Z,4.07
2022-08-26T07:36:58.837Z,4.15
2022-08-26T07:39:27.994Z,4.05
2022-08-26T07:41:56.271Z,4.60
2022-08-26T07:44:27.266Z,4.28
2022-08-26T07:46:55.651Z,4.35
2022-08-26T07:49:26.965Z,4.97
2022-08-26T07:51:58.232Z,4.68
2022-08-26T07:54:27.324Z,4.68
2022-08-26T07:56:56.158Z,4.75
2022-08-26T07:59:25.013Z,4.25
2022-08-26T08:01:53.933Z,9.70
2022-08-26T08:04:26.412Z,4.30
2022-08-26T08:06:55.957Z,4.40
2022-08-26T08:09:26.061Z,4.47
2022-08-26T08:11:55.698Z,4.68
2022-08-26T08:14:24.104Z,4.63
2022-08-26T08:16:54.966Z,4.97
2022-08-26T08:19:23.912Z,4.65
2022-08-26T08:21:56.635Z,4.88
2022-08-26T08:24:26.343Z,3.97
2022-08-26T08:26:54.488Z,4.13
2022-08-26T08:29:25.078Z,4.22
2022-08-26T08:31:56.819Z,4.13
2022-08-26T08:34:28.172Z,4.72
2022-08-26T08:36:57.205Z,4.13
2022-08-26T08:39:27.596Z,4.68
2022-08-26T08:42:16.223Z,4.32
2022-08-26T08:44:52.037Z,4.68
2022-08-26T08:47:29.179Z,4.25
2022-08-26T08:50:01.297Z,5.25
2022-08-26T08:52:33.964Z,4.72
2022-08-26T08:55:04.454Z,4.78
2022-08-26T08:57:53.777Z,4.63
2022-08-26T09:00:30.377Z,4.32
2022-08-26T09:03:04.334Z,4.10
2022-08-26T09:05:42.583Z,3.97
2022-08-26T09:08:19.735Z,4.55
2022-08-26T09:10:54.429Z,4.47
2022-08-26T09:13:25.117Z,4.78
2022-08-26T09:16:04.637Z,4.07
2022-08-26T09:18:48.833Z,4.38
2022-08-26T09:21:19.384Z,4.00
2022-08-26T09:23:49.656Z,4.28
2022-08-26T09:26:25.869Z,4.70
2022-08-26T09:28:59.073Z,4.70
2022-08-26T09:31:29.502Z,4.30
2022-08-26T09:34:09.513Z,4.93
2022-08-26T09:36:41.459Z,4.60
2022-08-26T09:39:30.782Z,4.68
2022-08-26T09:42:12.958Z,4.80
2022-08-26T09:45:06.197Z,4.25
2022-08-26T09:47:39.194Z,4.68
2022-08-26T09:50:20.304Z,4.43
2022-08-26T09:52:48.909Z,4.80
2022-08-26T09:55:24.123Z,4.80
2022-08-26T09:57:55.277Z,4.75
2022-08-26T10:00:30.771Z,5.07
2022-08-26T10:03:01.855Z,4.25
2022-08-26T10:05:36.183Z,4.38
2022-08-26T10:08:23.229Z,4.18
2022-08-26T10:10:53.851Z,4.65
2022-08-26T10:13:31.595Z,4.60
2022-08-26T10:16:17.918Z,4.50
2022-08-26T10:18:56.765Z,4.60
2022-08-26T10:21:33.700Z,4.13
2022-08-26T10:24:04.952Z,4.97
2022-08-26T10:26:42.599Z,4.45
2022-08-26T10:29:17.233Z,4.47
2022-08-26T10:31:51.998Z,4.90
2022-08-26T10:34:21.094Z,4.93
2022-08-26T10:37:14.271Z,4.47
2022-08-26T10:39:56.940Z,4.30
2022-08-26T10:42:33.642Z,4.78
2022-08-26T10:45:11.733Z,3.95
2022-08-26T10:47:49.568Z,5.30
2022-08-26T10:50:19.019Z,4.60
2022-08-26T10:53:02.064Z,4.53
2022-08-26T10:55:38.910Z,3.75
2022-08-26T10:58:26.241Z,4.22
2022-08-26T11:01:22.846Z,4.65
2022-08-26T11:04:01.516Z,3.83
2022-08-26T11:06:31.519Z,4.10
2022-08-26T11:09:02.338Z,4.78
2022-08-26T11:11:51.219Z,4.10
2022-08-26T11:14:53.507Z,3.95
2022-08-26T11:17:57.673Z,4.13
2022-08-26T11:20:41.560Z,4.32
2022-08-26T11:23:50.274Z,4.30
2022-08-26T11:26:27.524Z,3.80
2022-08-26T11:29:13.490Z,4.72
2022-08-26T11:31:59.016Z,4.60
2022-08-26T11:34:56.260Z,4.32
2022-08-26T11:37:32.288Z,4.82
2022-08-26T11:40:03.982Z,4.40
2022-08-26T11:42:41.582Z,5.38
2022-08-26T11:45:20.605Z,4.82
2022-08-26T11:47:49.424Z,4.80
2022-08-26T11:50:24.015Z,4.13
2022-08-26T11:53:01.764Z,4.10
2022-08-26T11:55:31.053Z,5.03
2022-08-26T11:58:02.214Z,4.55
2022-08-26T12:00:45.583Z,4.68
2022-08-26T12:03:21.101Z,4.40
2022-08-26T12:05:54.516Z,4.75
2022-08-26T12:08:27.957Z,4.70
2022-08-26T12:11:05.503Z,5.88
2022-08-26T12:13:35.932Z,4.90
2022-08-26T12:16:07.731Z,5.55
2022-08-26T12:18:39.020Z,5.40
2022-08-26T12:21:17.524Z,4.95
2022-08-26T12:23:50.104Z,5.18
2022-08-26T12:26:25.260Z,4.85
2022-08-26T12:28:57.496Z,5.03
2022-08-26T12:31:31.307Z,4.50
2022-08-26T12:34:01.682Z,5.03
2022-08-26T12:36:35.200Z,5.30
2022-08-26T12:39:08.910Z,4.82
2022-08-26T12:41:46.518Z,5.75
2022-08-26T12:44:53.138Z,5.03
2022-08-26T12:47:41.905Z,4.28
2022-08-26T12:50:19.315Z,6.05
2022-08-26T12:52:59.347Z,4.93
2022-08-26T12:55:37.497Z,4.68
2022-08-26T12:58:20.768Z,4.32
2022-08-26T13:00:49.739Z,4.78
2022-08-26T13:03:38.331Z,4.63
2022-08-26T13:06:16.060Z,4.95
2022-08-26T13:08:47.698Z,4.60
2022-08-26T13:11:20.851Z,5.82
2022-08-26T13:13:51.952Z,5.60
2022-08-26T13:16:22.487Z,5.18
2022-08-26T13:18:53.721Z,5.43
2022-08-26T13:21:24.783Z,5.20
2022-08-26T13:23:54.492Z,5.00
2022-08-26T13:26:23.414Z,4.57
2022-08-26T13:29:01.434Z,4.47
2022-08-26T13:31:32.765Z,4.63
2022-08-26T13:34:01.790Z,4.70
2022-08-26T13:36:30.013Z,14.52
2022-08-26T13:38:59.610Z,9.52
2022-08-26T13:41:29.221Z,5.28
2022-08-26T13:43:58.818Z,15.18
2022-08-26T13:46:28.493Z,8.27
2022-08-26T13:48:56.917Z,8.00
2022-08-26T13:51:26.980Z,5.60
2022-08-26T13:53:55.795Z,5.60
2022-08-26T13:56:27.546Z,5.63
2022-08-26T13:58:56.438Z,7.18
2022-08-26T14:01:25.798Z,5.72
2022-08-26T14:03:54.161Z,5.63
2022-08-26T14:06:23.011Z,5.40
2022-08-26T14:08:51.281Z,5.93
2022-08-26T14:11:19.570Z,6.53
2022-08-26T14:13:49.313Z,5.85
2022-08-26T14:16:25.524Z,5.60
2022-08-26T14:18:54.297Z,5.15
2022-08-26T14:21:22.645Z,5.40
2022-08-26T14:23:50.926Z,5.40
2022-08-26T14:26:28.117Z,5.32
2022-08-26T14:28:59.827Z,5.72
2022-08-26T14:31:29.544Z,6.28
2022-08-26T14:33:59.605Z,5.25
2022-08-26T14:36:32.382Z,5.35
2022-08-26T14:39:03.297Z,6.30
2022-08-26T14:41:33.536Z,5.15
2022-08-26T14:44:05.997Z,6.03
2022-08-26T14:46:40.637Z,5.30
2022-08-26T14:49:10.720Z,5.70
2022-08-26T14:51:42.118Z,6.32
2022-08-26T14:54:14.184Z,5.57
2022-08-26T14:56:47.218Z,5.72
2022-08-26T14:59:20.377Z,5.72
2022-08-26T15:01:48.885Z,5.65
2022-08-26T15:04:17.367Z,5.97
2022-08-26T15:06:46.285Z,6.18
2022-08-26T15:09:14.852Z,5.47
2022-08-26T15:11:43.398Z,5.00
2022-08-26T15:14:14.698Z,4.82
2022-08-26T15:16:49.741Z,5.13
2022-08-26T15:19:18.540Z,6.30
2022-08-26T15:21:47.594Z,5.50
2022-08-26T15:24:20.154Z,5.88
2022-08-26T15:26:50.687Z,5.40
2022-08-26T15:29:19.464Z,5.22
2022-08-26T15:31:49.218Z,5.93
2022-08-26T15:34:17.471Z,5.13
2022-08-26T15:36:46.903Z,5.45
2022-08-26T15:39:16.367Z,6.03
2022-08-26T15:41:44.784Z,5.45
2022-08-26T15:44:14.186Z,5.22
2022-08-26T15:46:43.080Z,5.68
2022-08-26T15:49:18.245Z,5.68
2022-08-26T15:51:50.457Z,6.07
2022-08-26T15:54:21.157Z,6.30
2022-08-26T15:56:52.521Z,5.32
2022-08-26T15:59:22.210Z,5.65
2022-08-26T16:01:51.378Z,5.20
2022-08-26T16:04:21.478Z,5.25
2022-08-26T16:06:52.245Z,5.68
2022-08-26T16:09:23.542Z,6.35
2022-08-26T16:11:52.398Z,7.93
2022-08-26T16:14:20.739Z,5.57
2022-08-26T16:16:49.313Z,5.40
2022-08-26T16:19:18.297Z,5.82
2022-08-26T16:21:48.104Z,5.55
2022-08-26T16:24:16.263Z,6.20
2022-08-26T16:26:45.477Z,7.95
2022-08-26T16:29:15.659Z,6.68
2022-08-26T16:31:43.919Z,6.40
2022-08-26T16:34:12.655Z,5.05
2022-08-26T16:36:41.330Z,5.13
2022-08-26T16:39:11.319Z,6.10
2022-08-26T16:41:39.918Z,5.35
2022-08-26T16:44:09.034Z,6.60
2022-08-26T16:46:37.733Z,7.30
2022-08-26T16:49:05.951Z,7.32
2022-08-26T16:51:38.355Z,6.90
2022-08-26T16:54:08.566Z,6.45
2022-08-26T16:56:38.591Z,6.28
2022-08-26T16:59:09.620Z,6.38
2022-08-26T17:01:38.410Z,6.60
2022-08-26T17:04:06.580Z,6.35
2022-08-26T17:06:35.547Z,6.20
2022-08-26T17:09:03.945Z,5.82
2022-08-26T17:11:32.666Z,5.60
2022-08-26T17:14:03.158Z,6.03
2022-08-26T17:16:31.570Z,6.18
2022-08-26T17:19:00.865Z,7.82
2022-08-26T17:21:29.477Z,7.72
2022-08-26T17:23:57.747Z,6.82
2022-08-26T17:26:26.256Z,7.05
2022-08-26T17:28:54.806Z,6.78
2022-08-26T17:31:25.188Z,6.65
2022-08-26T17:33:54.555Z,6.82
2022-08-26T17:36:27.474Z,8.63
2022-08-26T17:38:57.630Z,9.57
2022-08-26T17:41:26.491Z,7.00
2022-08-26T17:43:54.660Z,7.28
2022-08-26T17:46:24.528Z,6.32
2022-08-26T17:48:53.016Z,7.20
2022-08-26T17:51:23.034Z,6.90
2022-08-26T17:53:52.677Z,7.85
2022-08-26T17:56:25.625Z,9.50
2022-08-26T17:58:54.882Z,8.63
2022-08-26T18:01:27.684Z,7.15
2022-08-26T18:04:00.266Z,8.02
2022-08-26T18:06:30.405Z,8.10
2022-08-26T18:08:58.939Z,7.28
2022-08-26T18:11:27.207Z,7.55
2022-08-26T18:13:55.409Z,7.05
2022-08-26T18:16:23.770Z,7.30
2022-08-26T18:18:53.994Z,7.53
2022-08-26T18:21:25.900Z,7.15
2022-08-26T18:23:54.848Z,6.78
2022-08-26T18:26:27.783Z,8.70
2022-08-26T18:28:56.409Z,7.18
2022-08-26T18:31:25.135Z,9.85
2022-08-26T18:33:55.272Z,9.00
2022-08-26T18:36:26.010Z,8.73
2022-08-26T18:38:55.369Z,9.48
2022-08-26T18:41:26.405Z,10.77
2022-08-26T18:43:55.874Z,7.28
2022-08-26T18:46:26.394Z,7.13
2022-08-26T18:48:57.635Z,6.28
2022-08-26T18:51:29.655Z,6.05
2022-08-26T18:53:58.543Z,9.13
2022-08-26T18:56:27.342Z,6.50
2022-08-26T18:58:55.589Z,6.30
2022-08-26T19:01:27.429Z,6.45
2022-08-26T19:03:57.388Z,7.70
2022-08-26T19:06:27.522Z,7.95
2022-08-26T19:08:57.941Z,8.50
2022-08-26T19:11:31.683Z,7.22
2022-08-26T19:14:01.374Z,6.80
2022-08-26T19:16:30.567Z,5.78
2022-08-26T19:19:01.848Z,6.47
2022-08-26T19:21:31.010Z,6.55
2022-08-26T19:24:01.034Z,6.38
2022-08-26T19:26:29.962Z,7.00
2022-08-26T19:28:58.339Z,6.65
2022-08-26T19:31:26.596Z,6.50
2022-08-26T19:33:56.677Z,5.82
2022-08-26T19:36:27.771Z,6.10
2022-08-26T19:38:56.775Z,6.82
2022-08-26T19:41:37.401Z,6.28
2022-08-26T19:44:09.198Z,6.20
2022-08-26T19:49:07.229Z,6.18
2022-08-26T19:51:37.910Z,5.43
2022-08-26T19:54:06.335Z,6.72
2022-08-26T19:56:34.946Z,5.90
2022-08-26T19:59:03.223Z,5.55
2022-08-26T20:01:31.881Z,5.20
2022-08-26T20:03:59.997Z,5.57
2022-08-26T20:06:28.162Z,5.50
2022-08-26T20:08:58.233Z,5.22
2022-08-26T20:11:26.678Z,5.07
2022-08-26T20:13:55.532Z,5.22
2022-08-26T20:16:23.807Z,4.80
2022-08-26T20:19:09.799Z,6.45
2022-08-26T20:21:40.861Z,5.75
2022-08-26T20:24:16.379Z,6.00
2022-08-26T20:26:46.587Z,6.00
2022-08-26T20:29:16.857Z,5.95
2022-08-26T20:31:45.599Z,5.28
2022-08-26T20:34:14.554Z,5.68
2022-08-26T20:36:44.006Z,5.18
2022-08-26T20:39:13.820Z,5.45
2022-08-26T20:41:42.359Z,4.68
2022-08-26T20:44:10.695Z,5.38
2022-08-26T20:46:38.942Z,6.13
2022-08-26T20:49:07.886Z,5.43
2022-08-26T20:51:37.155Z,5.28
2022-08-26T20:54:06.338Z,5.80
2022-08-26T20:56:37.057Z,5.35
2022-08-26T20:59:06.934Z,5.88
2022-08-26T21:01:37.511Z,5.63
2022-08-26T21:04:13.965Z,5.28
2022-08-26T21:07:00.890Z,5.35
2022-08-26T21:09:29.087Z,5.80
2022-08-26T21:12:00.477Z,5.10
2022-08-26T21:14:29.816Z,5.50
2022-08-26T21:16:58.327Z,6.05
2022-08-26T21:19:26.801Z,5.20
2022-08-26T21:21:54.973Z,5.88
2022-08-26T21:24:23.082Z,6.35
2022-08-26T21:26:51.241Z,5.47
2022-08-26T21:29:22.100Z,5.80
2022-08-26T21:31:50.463Z,5.60
2022-08-26T21:34:19.802Z,5.95
2022-08-26T21:36:49.387Z,5.35
2022-08-26T21:39:17.686Z,5.45
2022-08-26T21:41:47.258Z,6.05
2022-08-26T21:44:16.863Z,5.35
2022-08-26T21:46:47.302Z,5.50
2022-08-26T21:49:17.505Z,5.72
2022-08-26T21:51:47.842Z,5.65
2022-08-26T21:54:18.221Z,5.38
2022-08-26T21:56:47.718Z,5.20
2022-08-26T21:59:17.680Z,5.30
2022-08-26T22:01:47.831Z,5.88
2022-08-26T22:04:17.085Z,5.75
2022-08-26T22:06:47.298Z,5.97
2022-08-26T22:09:17.075Z,6.15
2022-08-26T22:11:45.924Z,4.93
2022-08-26T22:14:14.541Z,5.20
2022-08-26T22:16:50.281Z,6.15
2022-08-26T22:19:21.195Z,5.55
2022-08-26T22:21:53.050Z,5.80
2022-08-26T22:24:23.831Z,6.00
2022-08-26T22:26:52.440Z,6.00
2022-08-26T22:29:20.986Z,6.22
2022-08-26T22:31:49.127Z,5.82
2022-08-26T22:34:19.636Z,5.95
2022-08-26T22:36:50.705Z,6.28
2022-08-26T22:39:21.244Z,5.70
2022-08-26T22:41:49.683Z,5.55
2022-08-26T22:44:19.396Z,5.50
2022-08-26T22:46:49.053Z,5.38
2022-08-26T22:49:18.353Z,5.93
2022-08-26T22:51:48.469Z,5.35
2022-08-26T22:54:17.435Z,5.68
2022-08-26T22:56:46.177Z,5.88
2022-08-26T22:59:16.291Z,5.88
2022-08-26T23:01:46.893Z,6.07
2022-08-26T23:04:15.954Z,5.90
2022-08-26T23:06:47.573Z,6.20
2022-08-26T23:09:19.396Z,5.38
2022-08-26T23:11:48.742Z,5.75
2022-08-26T23:14:17.336Z,6.05
2022-08-26T23:16:45.977Z,5.63
2022-08-26T23:19:16.091Z,5.43
2022-08-26T23:21:44.543Z,6.15
2022-08-26T23:24:13.389Z,5.20
2022-08-26T23:26:43.152Z,5.50
2022-08-26T23:29:12.695Z,5.53
2022-08-26T23:31:43.068Z,6.07
2022-08-26T23:34:29.436Z,5.72
2022-08-26T23:36:59.049Z,5.68
2022-08-26T23:39:28.229Z,5.97
2022-08-26T23:41:58.198Z,5.63
2022-08-26T23:44:26.809Z,5.70
2022-08-26T23:46:55.165Z,6.07
2022-08-26T23:49:23.663Z,6.18
2022-08-26T23:52:09.421Z,5.40
2022-08-26T23:54:38.655Z,5.53
2022-08-26T23:57:09.446Z,5.75
2022-08-26T23:59:39.181Z,5.72
